createdAt,value
2018-03-03T13:49:10.495Z,49.57
2018-03-03T13:51:39.517Z,54.80
2018-03-03T13:54:07.776Z,49.08
2018-03-03T13:56:36.780Z,47.50
2018-03-03T13:59:05.804Z,51.10
2018-03-03T14:01:34.064Z,50.07
2018-03-03T14:04:02.332Z,53.60
2018-03-03T14:06:31.335Z,48.50
2018-03-03T14:08:59.610Z,49.87
2018-03-03T14:11:28.620Z,54.77
2018-03-03T14:13:56.880Z,51.07
2018-03-03T14:16:25.906Z,51.13
2018-03-03T14:18:54.148Z,47.22
2018-03-03T14:21:22.408Z,50.90
2018-03-03T14:23:50.654Z,51.30
2018-03-03T14:26:19.429Z,55.93
2018-03-03T14:28:48.437Z,50.73
2018-03-03T14:31:16.693Z,50.47
2018-03-03T14:33:45.713Z,56.73
2018-03-03T14:36:13.980Z,58.57
2018-03-03T14:38:44.227Z,53.50
2018-03-03T14:41:12.484Z,51.17
2018-03-03T14:43:41.504Z,55.47
2018-03-03T14:46:09.747Z,52.83
2018-03-03T14:48:38.760Z,54.50
2018-03-03T14:51:07.787Z,52.73
2018-03-03T14:53:36.030Z,53.97
2018-03-03T14:56:05.053Z,51.17
2018-03-03T14:58:33.315Z,54.33
2018-03-03T15:01:02.333Z,52.93
2018-03-03T15:03:31.035Z,64.93
2018-03-03T15:05:59.287Z,73.55
2018-03-03T15:08:27.588Z,71.80
2018-03-03T15:10:56.152Z,75.85
2018-03-03T15:13:25.164Z,79.73
2018-03-03T15:15:53.403Z,72.00
2018-03-03T15:18:21.696Z,64.90
2018-03-03T15:20:49.916Z,76.00
2018-03-03T15:23:18.160Z,80.50
2018-03-03T15:25:47.176Z,83.40
2018-03-03T15:28:15.439Z,81.80
2018-03-03T15:30:44.443Z,73.87
2018-03-03T15:33:13.476Z,77.07
2018-03-03T15:35:41.734Z,71.43
2018-03-03T15:38:09.983Z,74.85
2018-03-03T15:40:38.240Z,69.40
2018-03-03T15:43:07.731Z,75.93
2018-03-03T15:45:35.967Z,79.73
2018-03-03T15:48:04.992Z,72.13
2018-03-03T15:50:33.244Z,76.03
2018-03-03T15:53:02.256Z,74.50
2018-03-03T15:55:30.515Z,72.97
2018-03-03T15:57:59.525Z,88.45
2018-03-03T16:00:28.548Z,88.50
2018-03-03T16:02:56.794Z,88.85
2018-03-03T16:05:25.809Z,82.87
2018-03-03T16:07:54.053Z,79.37
2018-03-03T16:10:22.316Z,86.53
2018-03-03T16:12:50.556Z,82.03
2018-03-03T16:15:18.812Z,82.97
2018-03-03T16:17:47.826Z,78.17
2018-03-03T16:20:16.068Z,81.73
2018-03-03T16:22:44.337Z,79.40
2018-03-03T16:25:12.608Z,81.20
2018-03-03T16:27:40.851Z,86.40
2018-03-03T16:30:09.112Z,80.90
2018-03-03T16:32:38.124Z,83.03
2018-03-03T16:35:06.380Z,80.53
2018-03-03T16:37:35.403Z,86.73
2018-03-03T16:40:03.651Z,83.17
2018-03-03T16:42:32.663Z,84.30
2018-03-03T16:45:01.696Z,85.57
2018-03-03T16:47:29.936Z,84.93
2018-03-03T16:49:58.948Z,83.30
2018-03-03T16:52:27.209Z,79.57
2018-03-03T16:54:56.280Z,85.15
2018-03-03T16:57:26.062Z,90.00
2018-03-03T16:59:54.284Z,82.87
2018-03-03T17:02:22.548Z,87.33
2018-03-03T17:04:50.783Z,85.67
2018-03-03T17:07:19.023Z,85.43
2018-03-03T17:09:47.293Z,84.83
2018-03-03T17:12:15.528Z,86.63
2018-03-03T17:14:43.772Z,88.53
2018-03-03T17:17:12.041Z,85.37
2018-03-03T17:19:40.286Z,91.90
2018-03-03T17:22:08.531Z,97.43
2018-03-03T17:24:37.549Z,86.67
2018-03-03T17:27:05.812Z,91.53
2018-03-03T17:29:34.832Z,90.77
2018-03-03T17:32:03.088Z,93.47
2018-03-03T17:34:31.335Z,95.30
2018-03-03T17:36:59.586Z,97.40
2018-03-03T17:39:27.848Z,92.83
2018-03-03T17:41:56.088Z,98.07
2018-03-03T17:44:24.331Z,99.80
2018-03-03T17:46:52.894Z,108.50
2018-03-03T17:49:21.487Z,98.05
2018-03-03T17:51:50.079Z,92.63
2018-03-03T17:54:18.326Z,101.73
2018-03-03T17:56:47.343Z,99.13
2018-03-03T17:59:15.596Z,92.73
2018-03-03T18:01:44.607Z,91.63
2018-03-03T18:04:13.621Z,99.20
2018-03-03T18:06:41.876Z,97.82
2018-03-03T18:09:10.895Z,99.85
2018-03-03T18:11:39.159Z,98.83
2018-03-03T18:14:08.173Z,101.77
2018-03-03T18:16:36.431Z,96.17
2018-03-03T18:19:05.459Z,90.53
2018-03-03T18:21:33.704Z,85.00
2018-03-03T18:24:02.721Z,102.57
2018-03-03T18:26:30.996Z,92.90
2018-03-03T18:29:00.021Z,105.63
2018-03-03T18:31:28.272Z,101.70
2018-03-03T18:33:56.545Z,91.00
2018-03-03T18:36:25.600Z,104.53
2018-03-03T18:38:53.856Z,97.43
2018-03-03T18:41:22.112Z,97.73
2018-03-03T18:43:51.123Z,95.63
2018-03-03T18:46:19.363Z,97.63
2018-03-03T18:48:47.639Z,98.20
2018-03-03T18:51:15.880Z,95.63
2018-03-03T18:53:45.370Z,101.37
2018-03-03T18:56:13.623Z,98.30
2018-03-03T18:58:42.647Z,93.70
2018-03-03T19:01:10.892Z,96.33
2018-03-03T19:03:39.152Z,107.07
2018-03-03T19:06:07.412Z,97.57
2018-03-03T19:08:35.670Z,108.03
2018-03-03T19:11:03.935Z,104.05
2018-03-03T19:13:32.194Z,102.00
2018-03-03T19:16:00.452Z,111.10
2018-03-03T19:18:28.713Z,102.90
2018-03-03T19:20:57.540Z,100.45
2018-03-03T19:23:25.801Z,99.47
2018-03-03T19:25:54.060Z,93.50
2018-03-03T19:28:22.322Z,92.23
2018-03-03T19:30:50.582Z,94.60
2018-03-03T19:33:19.603Z,89.67
2018-03-03T19:35:48.608Z,82.23
2018-03-03T19:38:16.857Z,96.50
2018-03-03T19:40:45.885Z,93.17
2018-03-03T19:43:14.130Z,89.13
2018-03-03T19:45:44.386Z,102.40
2018-03-03T19:48:12.641Z,92.67
2018-03-03T19:50:41.660Z,93.03
2018-03-03T19:53:09.899Z,91.50
2018-03-03T19:55:38.156Z,93.57
2018-03-03T19:58:06.408Z,90.80
2018-03-03T20:00:34.664Z,94.77
2018-03-03T20:03:03.672Z,91.93
2018-03-03T20:05:31.947Z,90.30
2018-03-03T20:08:00.239Z,90.43
2018-03-03T20:10:28.445Z,92.97
2018-03-03T20:12:56.701Z,88.57
2018-03-03T20:15:24.940Z,93.00
2018-03-03T20:17:53.191Z,92.50
2018-03-03T20:20:21.443Z,91.37
2018-03-03T20:22:49.964Z,90.40
2018-03-03T20:25:18.212Z,92.72
2018-03-03T20:27:46.457Z,95.77
2018-03-03T20:30:15.492Z,95.30
2018-03-03T20:32:43.732Z,99.07
2018-03-03T20:35:12.744Z,90.70
2018-03-03T20:37:41.658Z,87.88
2018-03-03T20:40:09.904Z,88.70
2018-03-03T20:42:38.916Z,79.63
2018-03-03T20:45:07.172Z,86.20
2018-03-03T20:47:35.422Z,82.53
2018-03-03T20:50:03.680Z,82.17
2018-03-03T20:52:31.936Z,80.33
2018-03-03T20:55:02.189Z,85.53
2018-03-03T20:57:30.452Z,89.57
2018-03-03T20:59:58.700Z,91.20
2018-03-03T21:02:26.968Z,89.03
2018-03-03T21:04:55.208Z,90.12
2018-03-03T21:07:23.464Z,88.53
2018-03-03T21:09:52.472Z,93.77
2018-03-03T21:12:37.526Z,93.73
2018-03-03T21:15:06.548Z,91.27
2018-03-03T21:17:34.796Z,91.87
2018-03-03T21:20:03.813Z,90.85
2018-03-03T21:22:32.084Z,102.80
2018-03-03T21:25:00.347Z,89.83
2018-03-03T21:27:28.653Z,91.45
2018-03-03T21:29:56.913Z,106.20
2018-03-03T21:32:25.931Z,99.47
2018-03-03T21:34:54.192Z,102.80
2018-03-03T21:37:24.468Z,97.97
2018-03-03T21:39:52.804Z,97.50
2018-03-03T21:42:21.812Z,93.30
2018-03-03T21:44:50.084Z,96.77
2018-03-03T21:47:19.104Z,97.22
2018-03-03T21:49:47.348Z,104.60
2018-03-03T21:52:16.478Z,102.80
2018-03-03T21:54:44.743Z,105.03
2018-03-03T21:57:13.757Z,98.65
2018-03-03T21:59:42.017Z,105.70
2018-03-03T22:02:11.316Z,98.70
2018-03-03T22:04:40.339Z,106.93
2018-03-03T22:07:08.636Z,105.13
2018-03-03T22:09:36.958Z,94.77
2018-03-03T22:12:05.205Z,99.07
2018-03-03T22:14:33.487Z,106.65
2018-03-03T22:17:01.737Z,98.73
2018-03-03T22:19:31.237Z,103.13
2018-03-03T22:21:59.488Z,104.00
2018-03-03T22:24:28.056Z,102.43
2018-03-03T22:26:56.317Z,97.93
2018-03-03T22:29:24.560Z,97.80
2018-03-03T22:31:53.577Z,105.03
2018-03-03T22:34:21.855Z,96.80
2018-03-03T22:36:50.121Z,108.03
2018-03-03T22:39:18.460Z,106.90
2018-03-03T22:41:46.741Z,104.67
2018-03-03T22:44:15.092Z,110.53
2018-03-03T22:46:43.344Z,115.10
2018-03-03T22:49:12.372Z,115.20
2018-03-03T22:51:40.620Z,121.10
2018-03-03T22:54:08.868Z,119.10
2018-03-03T22:56:37.132Z,125.10
2018-03-03T22:59:05.396Z,126.00
2018-03-03T23:01:33.647Z,125.63
2018-03-03T23:04:01.911Z,126.97
2018-03-03T23:06:30.920Z,129.20
2018-03-03T23:08:59.965Z,133.53
2018-03-03T23:11:28.568Z,128.32
2018-03-03T23:13:56.820Z,116.93
2018-03-03T23:16:25.064Z,124.50
2018-03-03T23:18:54.108Z,125.13
2018-03-03T23:21:22.351Z,116.05
2018-03-03T23:23:50.651Z,129.87
2018-03-03T23:26:18.866Z,120.30
2018-03-03T23:28:47.150Z,134.30
2018-03-03T23:31:15.433Z,131.93
2018-03-03T23:33:44.492Z,151.57
2018-03-03T23:36:12.744Z,130.10
2018-03-03T23:38:41.000Z,146.23
2018-03-03T23:41:10.509Z,131.47
2018-03-03T23:43:40.000Z,141.10
2018-03-03T23:46:08.311Z,144.83
2018-03-03T23:48:37.348Z,150.87
2018-03-03T23:51:05.600Z,158.17
2018-03-03T23:53:34.612Z,149.20
2018-03-03T23:56:02.896Z,156.50
2018-03-03T23:58:31.156Z,134.95
